Nearby METAR Reports

 

KTAN - Taunton, Massachusetts, USA
Distance from station: W 5mi, 8km
Updated: 09/19/2018 7:52am
Mist, Overcast
Mist, Overcast
 Wind from NE
Wind: NE 7 mph , 11 km/h
Temperature: 64°F , 18°C
Dew Point: 63°F , 17°C
Humidity: 94%
Barometer: 29.87 inHg , 1011.5 hPa
Summary: Mist
Clouds: Overcast
Visibility: 6 miles , 10 km
Cloud details: Mostly cloudy 700 ft
Overcast 1200 ft
2018/09/19 11:52 KTAN 191152Z AUTO 05006KT 6SM BR BKN007 OVC012 18/17 A2987 RMK AO2 RAE18B26E35 SLP113 P0001 60002 70119 T01830172 10194 20178 51019
KPYM - Plymouth, Massachusetts, USA
Distance from station: ENE 10mi, 16km
Updated: 09/19/2018 8:13am
Light rain, Mist, Overcast
Light rain, Mist, Overcast
 Wind from NNE
Wind: NNE 12 mph , 19 km/h
Temperature: 64°F , 18°C
Dew Point: 63°F , 17°C
Humidity: 94%
Barometer: 29.88 inHg , 1011.9 hPa
Summary: Light rain, Mist
Clouds: Overcast
Visibility: 1 1/4 miles , 2 km
Cloud details: Overcast 400 ft
2018/09/19 12:13 KPYM 191213Z AUTO 03010KT 1 1/4SM -RA BR OVC004 18/17 A2988 RMK AO2 P0001 T01780172
 
KEWB - New Bedford, Massachusetts, USA
Distance from station: S 14mi, 23km
Updated: 09/19/2018 8:10am
Mist, Overcast
Mist, Overcast
 Wind from NNE
Wind: NNE 8 mph , 13 km/h
Temperature: 66°F , 19°C
Dew Point: 66°F , 19°C
Humidity: 100%
Barometer: 29.85 inHg , 1010.8 hPa
Summary: Mist
Clouds: Overcast
Visibility: 5 miles , 8 km
Cloud details: Overcast 700 ft
2018/09/19 12:10 KEWB 191210Z 03007KT 5SM BR OVC007 19/19 A2985 RMK AO2 T01890189
KGHG - Marshfield, Massachusetts, USA
Distance from station: NE 20mi, 31km
Updated: 09/19/2018 8:15am
Overcast
Overcast
 Wind from NE
Wind: NE 8 mph , 13 km/h, Gust: 17 mph , 28 km/h
Temperature: 63°F , 17°C
Dew Point: 63°F , 17°C
Humidity: 100%
Barometer: 29.88 inHg , 1011.9 hPa
Clouds: Overcast
Visibility: 10 miles , 16 km
Cloud details: Overcast 600 ft
2018/09/19 12:15 KGHG 191215Z AUTO 04007G15KT 010V080 10SM OVC006 17/17 A2988 RMK AO2
 
KOWD - Norwood, Massachusetts, USA
Distance from station: NNW 24mi, 39km
Updated: 09/19/2018 7:53am
Mist, Overcast
Mist, Overcast
 Wind from varies
Wind: varies 5 mph , 7 km/h
Temperature: 64°F , 18°C
Dew Point: 63°F , 17°C
Humidity: 94%
Barometer: 29.88 inHg , 1011.9 hPa
Summary: Mist
Clouds: Overcast
Visibility: 2 miles , 3 km
Cloud details: Mostly cloudy 800 ft
Overcast 1500 ft
2018/09/19 11:53 KOWD 191153Z VRB04KT 2SM BR BKN008 OVC015 18/17 A2988 RMK AO2 CIG 005V012 SLP117 70314 T01780167 10217 20178 53016
KMQE - East Milton, Massachusetts, USA
Distance from station: NNW 25mi, 40km
Updated: 09/19/2018 4:56am
NOT Current

 Wind from NNE
Wind: NNE 14 mph , 22 km/h, Gust: 22 mph , 35 km/h
Temperature: 64°F , 18°C
Dew Point: 64°F , 18°C
Humidity: 100%
Barometer: 29.81 inHg , 1009.5 hPa
2018/09/19 08:56 KMQE 190856Z AUTO 03012G19KT 18/18 A2981 RMK AO1 SLP103 P0001 60001 T01830183 53012
 
KFMH - Falmouth/Otis Ab, Massachusetts, USA
Distance from station: SE 27mi, 44km
Updated: 09/19/2018 8:15am
Mist, Overcast
Mist, Overcast
 Wind from NNE
Wind: NNE 7 mph , 11 km/h
Temperature: 66°F , 19°C
Dew Point: 66°F , 19°C
Humidity: 100%
Barometer: 29.87 inHg , 1011.5 hPa
Summary: Mist
Clouds: Overcast
Visibility: 1 mile , 2 km
Cloud details: Overcast 300 ft
2018/09/19 12:15 KFMH 191215Z AUTO 03006KT 1SM BR OVC003 19/19 A2987 RMK AO2 LTG DSNT S
KPVD - Providence/Green, Rhode Island, USA
Distance from station: WSW 29mi, 47km
Updated: 09/19/2018 8:29am
Overcast
Overcast
 Wind from NNE
Wind: NNE 10 mph , 17 km/h
Temperature: 64°F , 18°C
Dew Point: 64°F , 18°C
Humidity: 100%
Barometer: 29.89 inHg , 1012.2 hPa
Clouds: Overcast
Visibility: 10 miles , 16 km
Cloud details: Overcast 900 ft
2018/09/19 12:29 KPVD 191229Z 03009KT 10SM OVC009 18/18 A2989 RMK AO2 T01780178
 
KSFZ - Pawtucket, Rhode Island, USA
Distance from station: W 30mi, 48km
Updated: 09/19/2018 7:56am
Overcast
Overcast
 Wind from NE
Wind: NE 10 mph , 17 km/h
Temperature: 63°F , 17°C
Dew Point: 61°F , 16°C
Humidity: 94%
Barometer: 29.89 inHg , 1012.2 hPa
Clouds: Overcast
Visibility: 9 miles , 14 km
Cloud details: Overcast 300 ft
2018/09/19 11:56 KSFZ 191156Z AUTO 05009KT 9SM OVC003 17/16 A2989 RMK AO2 RAE05B29E56 CIG 003V006 SLP067 P0000 60000 70083 T01670161 10194 20167 52026
KUUU - Newport, Rhode Island, USA
Distance from station: SW 31mi, 50km
Updated: 09/19/2018 8:04am
Mist, Overcast
Mist, Overcast
 Wind from N
Wind: N 13 mph , 20 km/h
Temperature: 64°F , 18°C
Dew Point: 64°F , 18°C
Humidity: 100%
Barometer: 29.86 inHg , 1011.2 hPa
Summary: Mist
Clouds: Overcast
Visibility: 5 miles , 8 km
Cloud details: Overcast 500 ft
2018/09/19 12:04 KUUU 191204Z AUTO 01011KT 5SM BR OVC005 18/18 A2986 RMK AO2 RAE00 P0000 T01830183
 
KOQU - N. Kingston/Quon, Rhode Island, USA
Distance from station: SW 32mi, 52km
Updated: 09/19/2018 7:50am
Overcast
Overcast
 Wind from NE
Wind: NE 28 mph , 44 km/h
Temperature: 66°F , 19°C
Dew Point: 63°F , 17°C
Humidity: 88%
Barometer: 29.86 inHg , 1011.2 hPa
Clouds: Overcast
Visibility: 10 miles , 16 km
Cloud details: Few Clouds 600 ft
Mostly cloudy 800 ft
Overcast 1200 ft
2018/09/19 11:50 KOQU 191150Z 05024KT 10SM FEW006 BKN008 OVC012 19/17 A2986
KBOS - Boston, Massachusetts, USA
Distance from station: N 33mi, 54km
Updated: 09/19/2018 7:54am
Overcast
Overcast
 Wind from NNE
Wind: NNE 16 mph , 26 km/h
Temperature: 63°F , 17°C
Dew Point: 59°F , 15°C
Humidity: 88%
Barometer: 29.89 inHg , 1012.2 hPa
Clouds: Overcast
Visibility: 10 miles , 16 km
Cloud details: Overcast 900 ft
2018/09/19 11:54 KBOS 191154Z 03014KT 10SM OVC009 17/15 A2989 RMK AO2 SLP123 60000 70094 T01720150 10217 20172 51025
 
KHYA - Hyannis, Massachusetts, USA
Distance from station: ESE 37mi, 59km
Updated: 09/19/2018 8:26am
Overcast
Overcast
 Wind from NNE
Wind: NNE 7 mph , 11 km/h
Temperature: 66°F , 19°C
Dew Point: 66°F , 19°C
Humidity: 100%
Barometer: 29.85 inHg , 1010.8 hPa
Clouds: Overcast
Visibility: 10 miles , 16 km
Cloud details: Overcast 700 ft
2018/09/19 12:26 KHYA 191226Z 03006KT 10SM OVC007 19/19 A2985 RMK AO2 RAE06 CIG 005V011 P0000 T01940189
KMVY - Marthas Vineyard, Massachusetts, USA
Distance from station: SSE 37mi, 60km
Updated: 09/19/2018 7:53am
Overcast
Overcast
 Wind from NE
Wind: NE 9 mph , 15 km/h
Temperature: 70°F , 21°C
Dew Point: 68°F , 20°C
Humidity: 94%
Barometer: 29.84 inHg , 1010.5 hPa
Clouds: Overcast
Visibility: 10 miles , 16 km
Cloud details: Mostly cloudy 900 ft
Overcast 1900 ft
2018/09/19 11:53 KMVY 191153Z 04008KT 10SM BKN009 OVC019 21/20 A2984 RMK AO2 SLP105 70054 T02060200 10206 20189 53025
 
KPVC - Provincetown, Massachusetts, USA
Distance from station: ENE 38mi, 61km
Updated: 09/19/2018 8:02am
Light rain, Mist, Overcast
Light rain, Mist, Overcast
 Wind from NE
Wind: NE 20 mph , 31 km/h
Temperature: 63°F , 17°C
Dew Point: 63°F , 17°C
Humidity: 100%
Barometer: 29.87 inHg , 1011.5 hPa
Summary: Light rain, Mist
Clouds: Overcast
Visibility: 3 miles , 5 km
Cloud details: Overcast 400 ft
2018/09/19 12:02 KPVC 191202Z AUTO 04017KT 3SM -RA BR OVC004 17/17 A2987 RMK AO2 P0000
KBED - Bedford, Massachusetts, USA
Distance from station: NNW 44mi, 72km
Updated: 09/19/2018 7:56am
Mist, Overcast
Mist, Overcast
 Wind from NE
Wind: NE 9 mph , 15 km/h
Temperature: 61°F , 16°C
Dew Point: 59°F , 15°C
Humidity: 94%
Barometer: 29.90 inHg , 1012.5 hPa
Summary: Mist
Clouds: Overcast
Visibility: 3 miles , 5 km
Cloud details: Overcast 600 ft
2018/09/19 11:56 KBED 191156Z 04008KT 3SM BR OVC006 16/15 A2990 RMK AO2 SLP135 70134 T01610150 10200 20161 53012
 
KBVY - Beverly, Massachusetts, USA
Distance from station: 0 48mi, 77km
Updated: 09/19/2018 8:27am
Mist, Overcast
Mist, Overcast
 Wind from NNE
Wind: NNE 10 mph , 17 km/h, Gust: 17 mph , 28 km/h
Temperature: 61°F , 16°C
Dew Point: 61°F , 16°C
Humidity: 100%
Barometer: 29.91 inHg , 1012.9 hPa
Summary: Mist
Clouds: Overcast
Visibility: 1 3/4 miles , 2.8 km
Cloud details: Overcast 600 ft
2018/09/19 12:27 KBVY 191227Z 03009G15KT 1 3/4SM BR OVC006 16/16 A2991 RMK AO2 T01610156
KCQX - Chatham, Massachusetts, USA
Distance from station: ESE 49mi, 80km
Updated: 09/19/2018 8:29am
Mist, Overcast
Mist, Overcast
 Wind from NE
Wind: NE 8 mph , 13 km/h
Temperature: 66°F , 19°C
Dew Point: 64°F , 18°C
Humidity: 94%
Barometer: 29.87 inHg , 1011.5 hPa
Summary: Mist
Clouds: Overcast
Visibility: 1 1/2 miles , 2.4 km
Cloud details: Overcast 300 ft
2018/09/19 12:29 KCQX 191229Z AUTO 05007KT 1 1/2SM BR OVC003 19/18 A2987 RMK AO2 RAB03E17 P0000 T01890183